sensor_id;sensor_type;location;lat;lon;timestamp;P1;durP1;ratioP1;P2;durP2;ratioP2
58366;SDS011;57745;42.524;12.052;2023-04-10T00:02:19;1.67;;;1.20;;
58366;SDS011;57745;42.524;12.052;2023-04-10T00:04:45;2.97;;;1.60;;
58366;SDS011;57745;42.524;12.052;2023-04-10T00:07:12;2.22;;;1.13;;
58366;SDS011;57745;42.524;12.052;2023-04-10T00:09:38;2.58;;;1.23;;
58366;SDS011;57745;42.524;12.052;2023-04-10T00:12:03;2.55;;;1.13;;
58366;SDS011;57745;42.524;12.052;2023-04-10T00:14:29;1.20;;;0.90;;
58366;SDS011;57745;42.524;12.052;2023-04-10T00:16:55;3.03;;;1.05;;
58366;SDS011;57745;42.524;12.052;2023-04-10T00:19:20;1.10;;;0.93;;
58366;SDS011;57745;42.524;12.052;2023-04-10T00:21:46;1.85;;;1.10;;
58366;SDS011;57745;42.524;12.052;2023-04-10T00:24:11;2.15;;;1.10;;
58366;SDS011;57745;42.524;12.052;2023-04-10T00:26:37;1.40;;;1.10;;
58366;SDS011;57745;42.524;12.052;2023-04-10T00:29:02;1.20;;;0.93;;
58366;SDS011;57745;42.524;12.052;2023-04-10T00:31:28;1.70;;;1.17;;
58366;SDS011;57745;42.524;12.052;2023-04-10T00:33:54;1.15;;;0.95;;
58366;SDS011;57745;42.524;12.052;2023-04-10T00:36:20;2.03;;;1.25;;
58366;SDS011;57745;42.524;12.052;2023-04-10T00:38:46;1.77;;;1.30;;
58366;SDS011;57745;42.524;12.052;2023-04-10T00:41:12;1.67;;;1.17;;
58366;SDS011;57745;42.524;12.052;2023-04-10T00:43:37;1.40;;;1.10;;
58366;SDS011;57745;42.524;12.052;2023-04-10T00:46:03;4.85;;;1.98;;
58366;SDS011;57745;42.524;12.052;2023-04-10T00:48:29;1.75;;;1.17;;
58366;SDS011;57745;42.524;12.052;2023-04-10T00:50:55;2.58;;;1.00;;
58366;SDS011;57745;42.524;12.052;2023-04-10T00:53:21;1.30;;;1.10;;
58366;SDS011;57745;42.524;12.052;2023-04-10T00:55:47;1.70;;;1.17;;
58366;SDS011;57745;42.524;12.052;2023-04-10T00:58:14;1.30;;;1.00;;
58366;SDS011;57745;42.524;12.052;2023-04-10T01:00:40;1.58;;;0.93;;
58366;SDS011;57745;42.524;12.052;2023-04-10T01:03:06;2.75;;;1.10;;
58366;SDS011;57745;42.524;12.052;2023-04-10T01:06:23;1.38;;;0.90;;
58366;SDS011;57745;42.524;12.052;2023-04-10T01:17:20;1.40;;;1.00;;
58366;SDS011;57745;42.524;12.052;2023-04-10T01:20:09;1.02;;;0.93;;
58366;SDS011;57745;42.524;12.052;2023-04-10T01:28:06;1.25;;;1.00;;
58366;SDS011;57745;42.524;12.052;2023-04-10T01:30:56;1.85;;;1.23;;
58366;SDS011;57745;42.524;12.052;2023-04-10T01:33:25;1.52;;;1.00;;
58366;SDS011;57745;42.524;12.052;2023-04-10T01:35:56;2.28;;;1.10;;
58366;SDS011;57745;42.524;12.052;2023-04-10T01:38:24;2.28;;;0.90;;
58366;SDS011;57745;42.524;12.052;2023-04-10T01:40:53;2.55;;;1.27;;
58366;SDS011;57745;42.524;12.052;2023-04-10T01:43:20;2.80;;;1.10;;
58366;SDS011;57745;42.524;12.052;2023-04-10T01:45:47;1.65;;;1.10;;
58366;SDS011;57745;42.524;12.052;2023-04-10T01:48:16;1.42;;;1.10;;
58366;SDS011;57745;42.524;12.052;2023-04-10T01:50:44;1.20;;;1.00;;
58366;SDS011;57745;42.524;12.052;2023-04-10T01:53:10;1.23;;;1.08;;
58366;SDS011;57745;42.524;12.052;2023-04-10T01:55:37;1.75;;;1.25;;
58366;SDS011;57745;42.524;12.052;2023-04-10T01:58:03;2.80;;;1.15;;
58366;SDS011;57745;42.524;12.052;2023-04-10T02:00:36;1.40;;;1.00;;
58366;SDS011;57745;42.524;12.052;2023-04-10T02:03:05;1.65;;;1.02;;
58366;SDS011;57745;42.524;12.052;2023-04-10T02:05:33;2.13;;;0.93;;
58366;SDS011;57745;42.524;12.052;2023-04-10T02:08:22;1.60;;;1.00;;
58366;SDS011;57745;42.524;12.052;2023-04-10T02:13:41;1.25;;;0.93;;
58366;SDS011;57745;42.524;12.052;2023-04-10T02:16:07;1.55;;;0.93;;
58366;SDS011;57745;42.524;12.052;2023-04-10T02:18:33;2.17;;;1.15;;
58366;SDS011;57745;42.524;12.052;2023-04-10T02:21:00;1.40;;;0.98;;
58366;SDS011;57745;42.524;12.052;2023-04-10T02:23:27;1.48;;;0.75;;
58366;SDS011;57745;42.524;12.052;2023-04-10T02:25:53;1.92;;;1.00;;
58366;SDS011;57745;42.524;12.052;2023-04-10T02:28:21;1.67;;;1.05;;
58366;SDS011;57745;42.524;12.052;2023-04-10T02:30:46;1.27;;;1.00;;
58366;SDS011;57745;42.524;12.052;2023-04-10T02:33:12;1.45;;;1.35;;
58366;SDS011;57745;42.524;12.052;2023-04-10T02:35:37;1.50;;;0.90;;
58366;SDS011;57745;42.524;12.052;2023-04-10T02:38:03;1.48;;;1.00;;
58366;SDS011;57745;42.524;12.052;2023-04-10T02:40:28;2.88;;;0.90;;
58366;SDS011;57745;42.524;12.052;2023-04-10T02:42:54;1.05;;;0.80;;
58366;SDS011;57745;42.524;12.052;2023-04-10T02:45:19;2.13;;;1.00;;
58366;SDS011;57745;42.524;12.052;2023-04-10T02:47:45;1.52;;;1.00;;
58366;SDS011;57745;42.524;12.052;2023-04-10T02:50:10;1.27;;;1.00;;
58366;SDS011;57745;42.524;12.052;2023-04-10T02:52:36;1.08;;;0.82;;
58366;SDS011;57745;42.524;12.052;2023-04-10T02:55:01;2.38;;;1.02;;
58366;SDS011;57745;42.524;12.052;2023-04-10T02:57:26;1.42;;;1.10;;
58366;SDS011;57745;42.524;12.052;2023-04-10T02:59:52;2.10;;;1.05;;
58366;SDS011;57745;42.524;12.052;2023-04-10T03:02:18;2.30;;;1.30;;
58366;SDS011;57745;42.524;12.052;2023-04-10T03:04:44;2.80;;;1.20;;
58366;SDS011;57745;42.524;12.052;2023-04-10T03:07:10;2.33;;;1.20;;
58366;SDS011;57745;42.524;12.052;2023-04-10T03:09:35;1.77;;;1.27;;
58366;SDS011;57745;42.524;12.052;2023-04-10T03:12:00;1.17;;;0.90;;
58366;SDS011;57745;42.524;12.052;2023-04-10T03:14:26;1.90;;;1.15;;
58366;SDS011;57745;42.524;12.052;2023-04-10T03:16:52;1.17;;;1.00;;
58366;SDS011;57745;42.524;12.052;2023-04-10T03:19:18;2.70;;;1.13;;
58366;SDS011;57745;42.524;12.052;2023-04-10T03:21:44;1.92;;;1.30;;
58366;SDS011;57745;42.524;12.052;2023-04-10T03:24:10;1.70;;;1.33;;
58366;SDS011;57745;42.524;12.052;2023-04-10T03:26:36;2.00;;;1.60;;
58366;SDS011;57745;42.524;12.052;2023-04-10T03:29:01;1.58;;;1.23;;
58366;SDS011;57745;42.524;12.052;2023-04-10T03:31:28;1.77;;;1.35;;
58366;SDS011;57745;42.524;12.052;2023-04-10T03:33:53;3.88;;;1.40;;
58366;SDS011;57745;42.524;12.052;2023-04-10T03:36:19;2.10;;;1.35;;
58366;SDS011;57745;42.524;12.052;2023-04-10T03:38:44;2.15;;;1.55;;
58366;SDS011;57745;42.524;12.052;2023-04-10T03:41:10;1.55;;;0.98;;
58366;SDS011;57745;42.524;12.052;2023-04-10T03:43:35;1.80;;;1.30;;
58366;SDS011;57745;42.524;12.052;2023-04-10T03:46:01;2.47;;;1.30;;
58366;SDS011;57745;42.524;12.052;2023-04-10T03:48:26;2.55;;;1.73;;
58366;SDS011;57745;42.524;12.052;2023-04-10T03:50:54;1.88;;;1.27;;
58366;SDS011;57745;42.524;12.052;2023-04-10T03:53:20;5.88;;;1.55;;
58366;SDS011;57745;42.524;12.052;2023-04-10T03:55:45;4.28;;;1.52;;
58366;SDS011;57745;42.524;12.052;2023-04-10T03:58:10;4.65;;;1.25;;
58366;SDS011;57745;42.524;12.052;2023-04-10T04:00:37;3.00;;;1.35;;
58366;SDS011;57745;42.524;12.052;2023-04-10T04:03:02;2.33;;;1.42;;
58366;SDS011;57745;42.524;12.052;2023-04-10T04:05:29;1.60;;;1.30;;
58366;SDS011;57745;42.524;12.052;2023-04-10T04:07:55;3.10;;;1.27;;
58366;SDS011;57745;42.524;12.052;2023-04-10T04:10:20;2.83;;;1.65;;
58366;SDS011;57745;42.524;12.052;2023-04-10T04:12:46;2.75;;;1.40;;
58366;SDS011;57745;42.524;12.052;2023-04-10T04:15:11;2.00;;;1.23;;
58366;SDS011;57745;42.524;12.052;2023-04-10T04:17:37;1.98;;;1.50;;
58366;SDS011;57745;42.524;12.052;2023-04-10T04:20:03;1.58;;;1.00;;
58366;SDS011;57745;42.524;12.052;2023-04-10T04:22:30;2.58;;;1.65;;
58366;SDS011;57745;42.524;12.052;2023-04-10T04:24:55;3.88;;;2.50;;
58366;SDS011;57745;42.524;12.052;2023-04-10T04:27:21;7.20;;;2.13;;
58366;SDS011;57745;42.524;12.052;2023-04-10T04:29:47;2.67;;;2.05;;
58366;SDS011;57745;42.524;12.052;2023-04-10T04:32:13;3.33;;;2.17;;
58366;SDS011;57745;42.524;12.052;2023-04-10T04:34:38;3.30;;;1.65;;
58366;SDS011;57745;42.524;12.052;2023-04-10T04:37:04;2.95;;;1.83;;
58366;SDS011;57745;42.524;12.052;2023-04-10T04:39:33;3.00;;;1.80;;
58366;SDS011;57745;42.524;12.052;2023-04-10T04:41:58;3.20;;;2.00;;
58366;SDS011;57745;42.524;12.052;2023-04-10T04:44:23;1.90;;;1.33;;
58366;SDS011;57745;42.524;12.052;2023-04-10T04:46:49;3.63;;;1.60;;
58366;SDS011;57745;42.524;12.052;2023-04-10T04:49:14;2.20;;;1.27;;
58366;SDS011;57745;42.524;12.052;2023-04-10T04:51:40;2.50;;;1.30;;
58366;SDS011;57745;42.524;12.052;2023-04-10T04:54:05;2.10;;;1.50;;
58366;SDS011;57745;42.524;12.052;2023-04-10T04:56:31;2.03;;;1.15;;
58366;SDS011;57745;42.524;12.052;2023-04-10T04:58:56;3.72;;;1.50;;
58366;SDS011;57745;42.524;12.052;2023-04-10T05:01:22;2.30;;;1.20;;
58366;SDS011;57745;42.524;12.052;2023-04-10T05:03:48;3.38;;;1.77;;
58366;SDS011;57745;42.524;12.052;2023-04-10T05:06:13;3.22;;;1.10;;
58366;SDS011;57745;42.524;12.052;2023-04-10T05:08:38;1.88;;;1.33;;
58366;SDS011;57745;42.524;12.052;2023-04-10T05:11:04;2.78;;;1.35;;
58366;SDS011;57745;42.524;12.052;2023-04-10T05:13:30;2.97;;;1.58;;
58366;SDS011;57745;42.524;12.052;2023-04-10T05:15:55;1.80;;;1.40;;
58366;SDS011;57745;42.524;12.052;2023-04-10T05:18:21;3.20;;;1.45;;
58366;SDS011;57745;42.524;12.052;2023-04-10T05:20:47;3.40;;;1.80;;
58366;SDS011;57745;42.524;12.052;2023-04-10T05:23:13;3.10;;;1.85;;
58366;SDS011;57745;42.524;12.052;2023-04-10T05:25:39;4.22;;;2.35;;
58366;SDS011;57745;42.524;12.052;2023-04-10T05:28:05;4.30;;;2.10;;
58366;SDS011;57745;42.524;12.052;2023-04-10T05:30:31;4.15;;;2.20;;
58366;SDS011;57745;42.524;12.052;2023-04-10T05:32:56;4.85;;;2.60;;
58366;SDS011;57745;42.524;12.052;2023-04-10T05:35:21;4.45;;;2.20;;
58366;SDS011;57745;42.524;12.052;2023-04-10T05:37:47;2.88;;;1.67;;
58366;SDS011;57745;42.524;12.052;2023-04-10T05:40:12;2.95;;;1.60;;
58366;SDS011;57745;42.524;12.052;2023-04-10T05:42:38;2.10;;;1.33;;
58366;SDS011;57745;42.524;12.052;2023-04-10T05:45:03;4.95;;;2.25;;
58366;SDS011;57745;42.524;12.052;2023-04-10T05:47:29;2.97;;;1.60;;
58366;SDS011;57745;42.524;12.052;2023-04-10T05:49:55;1.95;;;1.58;;
58366;SDS011;57745;42.524;12.052;2023-04-10T05:52:20;1.80;;;1.30;;
58366;SDS011;57745;42.524;12.052;2023-04-10T05:54:45;3.25;;;1.75;;
58366;SDS011;57745;42.524;12.052;2023-04-10T05:57:11;2.65;;;1.80;;
58366;SDS011;57745;42.524;12.052;2023-04-10T05:59:36;2.90;;;1.73;;
58366;SDS011;57745;42.524;12.052;2023-04-10T06:02:02;2.05;;;1.35;;
58366;SDS011;57745;42.524;12.052;2023-04-10T06:04:27;5.32;;;1.60;;
58366;SDS011;57745;42.524;12.052;2023-04-10T06:06:53;5.60;;;1.45;;
58366;SDS011;57745;42.524;12.052;2023-04-10T06:09:19;5.35;;;1.77;;
58366;SDS011;57745;42.524;12.052;2023-04-10T06:11:44;3.55;;;1.65;;
58366;SDS011;57745;42.524;12.052;2023-04-10T06:14:10;2.92;;;1.63;;
58366;SDS011;57745;42.524;12.052;2023-04-10T06:16:36;3.58;;;1.63;;
58366;SDS011;57745;42.524;12.052;2023-04-10T06:19:01;2.15;;;1.45;;
58366;SDS011;57745;42.524;12.052;2023-04-10T06:21:26;3.28;;;1.48;;
58366;SDS011;57745;42.524;12.052;2023-04-10T06:23:52;1.70;;;1.52;;
58366;SDS011;57745;42.524;12.052;2023-04-10T06:26:17;3.50;;;1.50;;
58366;SDS011;57745;42.524;12.052;2023-04-10T06:28:43;4.45;;;1.55;;
58366;SDS011;57745;42.524;12.052;2023-04-10T06:31:09;2.05;;;1.40;;
58366;SDS011;57745;42.524;12.052;2023-04-10T06:33:34;3.20;;;1.60;;
58366;SDS011;57745;42.524;12.052;2023-04-10T06:36:00;1.63;;;1.40;;
58366;SDS011;57745;42.524;12.052;2023-04-10T06:38:26;2.33;;;1.52;;
58366;SDS011;57745;42.524;12.052;2023-04-10T06:40:52;2.22;;;1.50;;
58366;SDS011;57745;42.524;12.052;2023-04-10T06:43:17;2.53;;;1.70;;
58366;SDS011;57745;42.524;12.052;2023-04-10T06:45:43;2.63;;;1.70;;
58366;SDS011;57745;42.524;12.052;2023-04-10T06:48:09;2.80;;;1.70;;
58366;SDS011;57745;42.524;12.052;2023-04-10T06:50:35;3.42;;;1.52;;
58366;SDS011;57745;42.524;12.052;2023-04-10T06:53:01;2.58;;;1.63;;
58366;SDS011;57745;42.524;12.052;2023-04-10T06:55:26;1.83;;;1.40;;
58366;SDS011;57745;42.524;12.052;2023-04-10T06:57:52;4.43;;;1.60;;
58366;SDS011;57745;42.524;12.052;2023-04-10T07:00:17;4.72;;;1.70;;
58366;SDS011;57745;42.524;12.052;2023-04-10T07:02:43;2.47;;;1.33;;
58366;SDS011;57745;42.524;12.052;2023-04-10T07:05:10;3.30;;;1.80;;
58366;SDS011;57745;42.524;12.052;2023-04-10T07:07:35;2.20;;;1.65;;
58366;SDS011;57745;42.524;12.052;2023-04-10T07:10:01;1.70;;;1.30;;
58366;SDS011;57745;42.524;12.052;2023-04-10T07:12:26;7.95;;;2.28;;
58366;SDS011;57745;42.524;12.052;2023-04-10T07:14:52;2.83;;;1.60;;
58366;SDS011;57745;42.524;12.052;2023-04-10T07:17:17;3.95;;;1.70;;
58366;SDS011;57745;42.524;12.052;2023-04-10T07:19:43;4.55;;;1.80;;
58366;SDS011;57745;42.524;12.052;2023-04-10T07:22:08;4.10;;;1.77;;
58366;SDS011;57745;42.524;12.052;2023-04-10T07:24:33;3.20;;;1.60;;
58366;SDS011;57745;42.524;12.052;2023-04-10T07:26:59;3.42;;;1.67;;
58366;SDS011;57745;42.524;12.052;2023-04-10T07:29:25;7.80;;;1.85;;
58366;SDS011;57745;42.524;12.052;2023-04-10T07:31:51;6.80;;;2.10;;
58366;SDS011;57745;42.524;12.052;2023-04-10T07:34:16;2.13;;;1.60;;
58366;SDS011;57745;42.524;12.052;2023-04-10T07:36:42;5.72;;;1.70;;
58366;SDS011;57745;42.524;12.052;2023-04-10T07:39:08;2.08;;;1.50;;
58366;SDS011;57745;42.524;12.052;2023-04-10T07:41:33;4.07;;;2.22;;
58366;SDS011;57745;42.524;12.052;2023-04-10T07:43:59;3.20;;;1.50;;
58366;SDS011;57745;42.524;12.052;2023-04-10T07:46:25;4.30;;;1.50;;
58366;SDS011;57745;42.524;12.052;2023-04-10T07:48:51;4.32;;;1.45;;
58366;SDS011;57745;42.524;12.052;2023-04-10T07:51:17;2.17;;;1.60;;
58366;SDS011;57745;42.524;12.052;2023-04-10T07:53:42;4.95;;;1.50;;
58366;SDS011;57745;42.524;12.052;2023-04-10T07:56:13;3.67;;;1.48;;
58366;SDS011;57745;42.524;12.052;2023-04-10T07:58:43;3.42;;;1.70;;
58366;SDS011;57745;42.524;12.052;2023-04-10T08:01:08;3.33;;;1.40;;
58366;SDS011;57745;42.524;12.052;2023-04-10T08:03:40;3.05;;;1.67;;
58366;SDS011;57745;42.524;12.052;2023-04-10T08:06:07;2.30;;;1.60;;
58366;SDS011;57745;42.524;12.052;2023-04-10T08:08:38;3.83;;;1.60;;
58366;SDS011;57745;42.524;12.052;2023-04-10T08:13:53;3.13;;;1.67;;
58366;SDS011;57745;42.524;12.052;2023-04-10T08:16:29;2.97;;;1.63;;
58366;SDS011;57745;42.524;12.052;2023-04-10T08:18:56;2.25;;;1.60;;
58366;SDS011;57745;42.524;12.052;2023-04-10T08:21:23;2.22;;;1.48;;
58366;SDS011;57745;42.524;12.052;2023-04-10T08:23:50;2.17;;;1.45;;
58366;SDS011;57745;42.524;12.052;2023-04-10T08:26:19;2.80;;;1.70;;
58366;SDS011;57745;42.524;12.052;2023-04-10T08:28:47;2.42;;;1.70;;
58366;SDS011;57745;42.524;12.052;2023-04-10T08:31:14;3.47;;;1.40;;
58366;SDS011;57745;42.524;12.052;2023-04-10T08:33:41;2.38;;;1.48;;
58366;SDS011;57745;42.524;12.052;2023-04-10T08:36:10;4.60;;;1.70;;
58366;SDS011;57745;42.524;12.052;2023-04-10T08:38:37;3.25;;;1.58;;
58366;SDS011;57745;42.524;12.052;2023-04-10T08:41:05;2.50;;;1.58;;
58366;SDS011;57745;42.524;12.052;2023-04-10T08:43:33;2.47;;;1.50;;
58366;SDS011;57745;42.524;12.052;2023-04-10T08:46:00;1.75;;;1.40;;
58366;SDS011;57745;42.524;12.052;2023-04-10T08:48:28;2.22;;;1.52;;
58366;SDS011;57745;42.524;12.052;2023-04-10T08:50:59;1.80;;;1.35;;
58366;SDS011;57745;42.524;12.052;2023-04-10T08:53:28;3.15;;;1.20;;
58366;SDS011;57745;42.524;12.052;2023-04-10T08:55:55;3.47;;;1.60;;
58366;SDS011;57745;42.524;12.052;2023-04-10T08:58:23;3.75;;;1.75;;
58366;SDS011;57745;42.524;12.052;2023-04-10T09:00:48;4.85;;;1.60;;
58366;SDS011;57745;42.524;12.052;2023-04-10T09:03:15;4.45;;;1.55;;
58366;SDS011;57745;42.524;12.052;2023-04-10T09:05:41;10.73;;;1.65;;
58366;SDS011;57745;42.524;12.052;2023-04-10T09:08:07;3.78;;;1.50;;
58366;SDS011;57745;42.524;12.052;2023-04-10T09:10:34;2.67;;;1.70;;
58366;SDS011;57745;42.524;12.052;2023-04-10T09:13:00;2.30;;;1.67;;
58366;SDS011;57745;42.524;12.052;2023-04-10T09:15:26;2.67;;;1.77;;
58366;SDS011;57745;42.524;12.052;2023-04-10T09:17:56;4.05;;;1.60;;
58366;SDS011;57745;42.524;12.052;2023-04-10T09:20:27;6.22;;;2.13;;
58366;SDS011;57745;42.524;12.052;2023-04-10T09:22:53;2.35;;;1.38;;
58366;SDS011;57745;42.524;12.052;2023-04-10T09:28:27;1.95;;;1.60;;
58366;SDS011;57745;42.524;12.052;2023-04-10T09:30:45;2.15;;;1.45;;
58366;SDS011;57745;42.524;12.052;2023-04-10T09:35:45;2.22;;;1.52;;
58366;SDS011;57745;42.524;12.052;2023-04-10T09:40:41;2.92;;;1.70;;
58366;SDS011;57745;42.524;12.052;2023-04-10T09:43:20;3.28;;;1.70;;
58366;SDS011;57745;42.524;12.052;2023-04-10T09:45:47;2.80;;;1.80;;
58366;SDS011;57745;42.524;12.052;2023-04-10T09:48:16;3.33;;;1.80;;
58366;SDS011;57745;42.524;12.052;2023-04-10T09:50:42;4.47;;;1.70;;
58366;SDS011;57745;42.524;12.052;2023-04-10T09:53:09;1.67;;;1.58;;
58366;SDS011;57745;42.524;12.052;2023-04-10T09:55:39;2.22;;;1.83;;
58366;SDS011;57745;42.524;12.052;2023-04-10T09:58:05;3.25;;;2.10;;
58366;SDS011;57745;42.524;12.052;2023-04-10T10:00:34;3.33;;;1.95;;
58366;SDS011;57745;42.524;12.052;2023-04-10T10:03:10;2.20;;;1.90;;
58366;SDS011;57745;42.524;12.052;2023-04-10T10:05:58;2.65;;;1.85;;
58366;SDS011;57745;42.524;12.052;2023-04-10T10:08:23;2.28;;;1.73;;
58366;SDS011;57745;42.524;12.052;2023-04-10T10:10:50;2.47;;;1.90;;
58366;SDS011;57745;42.524;12.052;2023-04-10T10:13:26;2.97;;;2.20;;
58366;SDS011;57745;42.524;12.052;2023-04-10T10:16:08;2.85;;;2.10;;
58366;SDS011;57745;42.524;12.052;2023-04-10T10:18:53;4.27;;;2.83;;
58366;SDS011;57745;42.524;12.052;2023-04-10T10:21:43;3.73;;;2.77;;
58366;SDS011;57745;42.524;12.052;2023-04-10T10:24:10;2.78;;;2.30;;
58366;SDS011;57745;42.524;12.052;2023-04-10T10:26:37;2.83;;;2.17;;
58366;SDS011;57745;42.524;12.052;2023-04-10T10:29:04;3.13;;;2.35;;
58366;SDS011;57745;42.524;12.052;2023-04-10T10:31:32;3.15;;;2.60;;
58366;SDS011;57745;42.524;12.052;2023-04-10T10:34:01;2.90;;;2.25;;
58366;SDS011;57745;42.524;12.052;2023-04-10T10:36:29;4.03;;;2.47;;
58366;SDS011;57745;42.524;12.052;2023-04-10T10:39:21;5.10;;;2.90;;
58366;SDS011;57745;42.524;12.052;2023-04-10T10:44:47;5.35;;;3.38;;
58366;SDS011;57745;42.524;12.052;2023-04-10T10:47:17;5.57;;;3.80;;
58366;SDS011;57745;42.524;12.052;2023-04-10T10:49:57;5.40;;;4.05;;
58366;SDS011;57745;42.524;12.052;2023-04-10T11:01:15;6.10;;;4.43;;
58366;SDS011;57745;42.524;12.052;2023-04-10T11:05:47;20.17;;;12.38;;
58366;SDS011;57745;42.524;12.052;2023-04-10T11:08:16;20.38;;;12.32;;
58366;SDS011;57745;42.524;12.052;2023-04-10T11:13:27;17.77;;;10.43;;
58366;SDS011;57745;42.524;12.052;2023-04-10T11:15:56;27.30;;;15.70;;
58366;SDS011;57745;42.524;12.052;2023-04-10T11:21:13;16.98;;;10.30;;
58366;SDS011;57745;42.524;12.052;2023-04-10T11:31:45;7.70;;;5.35;;
58366;SDS011;57745;42.524;12.052;2023-04-10T11:34:19;6.63;;;4.47;;
58366;SDS011;57745;42.524;12.052;2023-04-10T11:36:45;5.50;;;3.85;;
58366;SDS011;57745;42.524;12.052;2023-04-10T11:39:12;5.88;;;4.20;;
58366;SDS011;57745;42.524;12.052;2023-04-10T11:41:44;11.35;;;6.47;;
58366;SDS011;57745;42.524;12.052;2023-04-10T11:44:14;12.23;;;7.90;;
58366;SDS011;57745;42.524;12.052;2023-04-10T11:46:41;8.93;;;5.85;;
58366;SDS011;57745;42.524;12.052;2023-04-10T11:49:11;7.55;;;5.10;;
58366;SDS011;57745;42.524;12.052;2023-04-10T11:51:43;6.88;;;4.32;;
58366;SDS011;57745;42.524;12.052;2023-04-10T11:54:17;7.85;;;4.82;;
58366;SDS011;57745;42.524;12.052;2023-04-10T11:56:45;7.10;;;4.53;;
58366;SDS011;57745;42.524;12.052;2023-04-10T11:59:31;5.22;;;4.15;;
58366;SDS011;57745;42.524;12.052;2023-04-10T12:04:31;35.25;;;17.42;;
58366;SDS011;57745;42.524;12.052;2023-04-10T12:06:57;33.30;;;16.85;;
58366;SDS011;57745;42.524;12.052;2023-04-10T12:09:23;26.58;;;14.77;;
58366;SDS011;57745;42.524;12.052;2023-04-10T12:14:16;16.20;;;8.45;;
58366;SDS011;57745;42.524;12.052;2023-04-10T12:16:43;14.32;;;7.82;;
58366;SDS011;57745;42.524;12.052;2023-04-10T12:19:09;10.63;;;6.32;;
58366;SDS011;57745;42.524;12.052;2023-04-10T12:21:36;10.45;;;6.40;;
58366;SDS011;57745;42.524;12.052;2023-04-10T12:24:02;9.40;;;5.68;;
58366;SDS011;57745;42.524;12.052;2023-04-10T12:26:28;8.25;;;5.38;;
58366;SDS011;57745;42.524;12.052;2023-04-10T12:28:54;7.95;;;5.35;;
58366;SDS011;57745;42.524;12.052;2023-04-10T12:31:27;13.00;;;8.60;;
58366;SDS011;57745;42.524;12.052;2023-04-10T12:33:58;9.77;;;6.65;;
58366;SDS011;57745;42.524;12.052;2023-04-10T12:36:28;10.13;;;6.35;;
58366;SDS011;57745;42.524;12.052;2023-04-10T12:38:55;9.05;;;5.53;;
58366;SDS011;57745;42.524;12.052;2023-04-10T12:41:22;8.65;;;6.18;;
58366;SDS011;57745;42.524;12.052;2023-04-10T12:43:49;12.05;;;6.90;;
58366;SDS011;57745;42.524;12.052;2023-04-10T12:46:23;8.38;;;5.78;;
58366;SDS011;57745;42.524;12.052;2023-04-10T12:48:53;10.50;;;5.93;;
58366;SDS011;57745;42.524;12.052;2023-04-10T12:51:39;8.07;;;5.80;;
58366;SDS011;57745;42.524;12.052;2023-04-10T12:54:06;9.77;;;5.88;;
58366;SDS011;57745;42.524;12.052;2023-04-10T12:56:41;9.38;;;5.40;;
58366;SDS011;57745;42.524;12.052;2023-04-10T12:59:07;8.20;;;5.38;;
58366;SDS011;57745;42.524;12.052;2023-04-10T13:01:33;13.57;;;7.82;;
58366;SDS011;57745;42.524;12.052;2023-04-10T13:03:58;8.95;;;5.93;;
58366;SDS011;57745;42.524;12.052;2023-04-10T13:06:24;11.77;;;5.90;;
58366;SDS011;57745;42.524;12.052;2023-04-10T13:08:49;10.45;;;5.90;;
58366;SDS011;57745;42.524;12.052;2023-04-10T13:11:16;10.27;;;5.43;;
58366;SDS011;57745;42.524;12.052;2023-04-10T13:13:42;9.82;;;4.75;;
58366;SDS011;57745;42.524;12.052;2023-04-10T13:16:07;7.40;;;4.20;;
58366;SDS011;57745;42.524;12.052;2023-04-10T13:18:36;6.45;;;4.30;;
58366;SDS011;57745;42.524;12.052;2023-04-10T13:21:02;7.35;;;4.50;;
58366;SDS011;57745;42.524;12.052;2023-04-10T13:23:28;5.50;;;4.07;;
58366;SDS011;57745;42.524;12.052;2023-04-10T13:25:54;5.72;;;4.00;;
58366;SDS011;57745;42.524;12.052;2023-04-10T13:28:20;11.50;;;5.88;;
58366;SDS011;57745;42.524;12.052;2023-04-10T13:30:46;8.57;;;4.40;;
58366;SDS011;57745;42.524;12.052;2023-04-10T13:33:12;7.95;;;4.22;;
58366;SDS011;57745;42.524;12.052;2023-04-10T13:35:37;7.13;;;3.58;;
58366;SDS011;57745;42.524;12.052;2023-04-10T13:38:04;4.88;;;3.35;;
58366;SDS011;57745;42.524;12.052;2023-04-10T13:40:29;4.82;;;3.30;;
58366;SDS011;57745;42.524;12.052;2023-04-10T13:42:55;5.38;;;3.53;;
58366;SDS011;57745;42.524;12.052;2023-04-10T13:45:21;7.80;;;4.07;;
58366;SDS011;57745;42.524;12.052;2023-04-10T13:47:46;9.52;;;4.70;;
58366;SDS011;57745;42.524;12.052;2023-04-10T13:50:12;9.18;;;5.40;;
58366;SDS011;57745;42.524;12.052;2023-04-10T13:52:37;6.32;;;5.00;;
58366;SDS011;57745;42.524;12.052;2023-04-10T13:55:03;8.02;;;5.00;;
58366;SDS011;57745;42.524;12.052;2023-04-10T13:57:29;7.80;;;4.20;;
58366;SDS011;57745;42.524;12.052;2023-04-10T13:59:55;5.18;;;4.00;;
58366;SDS011;57745;42.524;12.052;2023-04-10T14:02:20;9.18;;;5.28;;
58366;SDS011;57745;42.524;12.052;2023-04-10T14:04:45;6.85;;;4.43;;
58366;SDS011;57745;42.524;12.052;2023-04-10T14:07:11;7.05;;;4.10;;
58366;SDS011;57745;42.524;12.052;2023-04-10T14:09:37;6.28;;;4.20;;
58366;SDS011;57745;42.524;12.052;2023-04-10T14:12:02;6.47;;;4.25;;
58366;SDS011;57745;42.524;12.052;2023-04-10T14:14:28;5.97;;;3.67;;
58366;SDS011;57745;42.524;12.052;2023-04-10T14:16:54;6.20;;;3.80;;
58366;SDS011;57745;42.524;12.052;2023-04-10T14:19:19;4.35;;;3.42;;
58366;SDS011;57745;42.524;12.052;2023-04-10T14:21:45;5.38;;;3.65;;
58366;SDS011;57745;42.524;12.052;2023-04-10T14:24:10;5.35;;;3.45;;
58366;SDS011;57745;42.524;12.052;2023-04-10T14:26:36;4.68;;;3.42;;
58366;SDS011;57745;42.524;12.052;2023-04-10T14:29:01;4.25;;;3.10;;
58366;SDS011;57745;42.524;12.052;2023-04-10T14:31:27;4.20;;;3.33;;
58366;SDS011;57745;42.524;12.052;2023-04-10T14:33:52;5.82;;;3.95;;
58366;SDS011;57745;42.524;12.052;2023-04-10T14:36:18;5.28;;;3.35;;
58366;SDS011;57745;42.524;12.052;2023-04-10T14:38:43;5.07;;;3.55;;
58366;SDS011;57745;42.524;12.052;2023-04-10T14:41:09;6.80;;;4.00;;
58366;SDS011;57745;42.524;12.052;2023-04-10T14:43:34;5.43;;;4.10;;
58366;SDS011;57745;42.524;12.052;2023-04-10T14:46:01;5.03;;;3.95;;
58366;SDS011;57745;42.524;12.052;2023-04-10T14:48:26;4.57;;;3.50;;
58366;SDS011;57745;42.524;12.052;2023-04-10T14:50:51;5.05;;;3.67;;
58366;SDS011;57745;42.524;12.052;2023-04-10T14:53:17;5.43;;;3.58;;
58366;SDS011;57745;42.524;12.052;2023-04-10T14:55:42;5.13;;;3.38;;
58366;SDS011;57745;42.524;12.052;2023-04-10T14:58:08;4.68;;;3.50;;
58366;SDS011;57745;42.524;12.052;2023-04-10T15:00:35;5.43;;;3.38;;
58366;SDS011;57745;42.524;12.052;2023-04-10T15:03:00;4.65;;;3.20;;
58366;SDS011;57745;42.524;12.052;2023-04-10T15:05:26;4.35;;;3.05;;
58366;SDS011;57745;42.524;12.052;2023-04-10T15:07:52;4.47;;;2.80;;
58366;SDS011;57745;42.524;12.052;2023-04-10T15:10:18;4.93;;;3.20;;
58366;SDS011;57745;42.524;12.052;2023-04-10T15:12:44;4.13;;;2.97;;
58366;SDS011;57745;42.524;12.052;2023-04-10T15:15:09;4.30;;;3.22;;
58366;SDS011;57745;42.524;12.052;2023-04-10T15:17:35;3.53;;;2.95;;
58366;SDS011;57745;42.524;12.052;2023-04-10T15:20:02;3.53;;;2.83;;
58366;SDS011;57745;42.524;12.052;2023-04-10T15:22:29;4.63;;;3.20;;
58366;SDS011;57745;42.524;12.052;2023-04-10T15:24:54;3.63;;;2.63;;
58366;SDS011;57745;42.524;12.052;2023-04-10T15:27:25;4.05;;;2.92;;
58366;SDS011;57745;42.524;12.052;2023-04-10T15:29:51;3.65;;;2.65;;
58366;SDS011;57745;42.524;12.052;2023-04-10T15:32:16;4.93;;;3.20;;
58366;SDS011;57745;42.524;12.052;2023-04-10T15:34:42;4.03;;;3.08;;